Time;durP1;ratioP1;P1;durP2;ratioP2;P2;SDS_P1;SDS_P2;PMS_P1;PMS_P2;Temp;Humidity;BMP_temperature;BMP_pressure;BME280_temperature;BME280_humidity;BME280_pressure;Samples;Min_cycle;Max_cycle;Signal;HPM_P1;HPM_P2
2024/01/27 00:00:05;;;;;;;7.93;3.07;;;;;;;-141.97;55.14;45991.41;4965548;28;20516;-89
2024/01/27 00:02:31;;;;;;;7.83;3.03;;;;;;;-141.97;55.22;46064.41;4998465;28;20200;-88
2024/01/27 00:04:56;;;;;;;6.77;3.20;;;;;;;-141.97;55.11;45926.06;4965806;28;20417;-88
2024/01/27 00:07:22;;;;;;;6.77;3.60;;;;;;;-141.97;54.48;46047.13;5013889;28;20167;-89
2024/01/27 00:09:47;;;;;;;5.07;2.63;;;;;;;-141.97;54.28;46045.19;4995171;28;20237;-90
2024/01/27 00:12:13;;;;;;;6.63;3.30;;;;;;;-141.97;54.23;46350.69;4995103;28;20205;-88
2024/01/27 00:14:38;;;;;;;7.70;4.00;;;;;;;-141.97;54.23;46198.91;4978884;28;20241;-90
2024/01/27 00:17:04;;;;;;;6.73;3.43;;;;;;;-141.97;54.47;46350.69;4978693;28;20733;-90
2024/01/27 00:19:29;;;;;;;7.40;3.60;;;;;;;-141.97;53.99;45912.63;4963245;28;20657;-90
2024/01/27 00:21:55;;;;;;;6.73;3.80;;;;;;;-141.97;53.70;46477.50;4978622;28;20209;-89
2024/01/27 00:24:20;;;;;;;10.00;4.03;;;;;;;-141.97;53.51;46024.06;4978719;28;20194;-89
2024/01/27 00:26:46;;;;;;;7.30;4.37;;;;;;;-141.97;53.96;45926.06;4979007;28;20181;-89
2024/01/27 00:29:11;;;;;;;8.33;4.33;;;;;;;-141.97;53.89;46131.66;4963095;28;20665;-90
2024/01/27 00:31:37;;;;;;;7.43;4.30;;;;;;;-141.97;53.98;46014.44;4978572;28;20201;-90
2024/01/27 00:34:02;;;;;;;7.23;4.20;;;;;;;-141.97;53.90;45985.63;4994820;28;20163;-89
2024/01/27 00:36:28;;;;;;;8.30;3.80;;;;;;;-141.97;53.79;46147.03;4961945;28;20170;-89
2024/01/27 00:38:53;;;;;;;8.47;4.37;;;;;;;-141.97;53.34;46523.59;4978259;28;20167;-89
2024/01/27 00:41:19;;;;;;;6.77;4.10;;;;;;;-141.97;53.55;45956.81;4977847;28;20178;-89
2024/01/27 00:43:45;;;;;;;10.90;4.40;;;;;;;-141.97;53.59;46020.22;4977705;28;20583;-89
2024/01/27 00:46:10;;;;;;;9.53;4.57;;;;;;;-141.97;54.02;45970.25;4979477;28;20666;-90
2024/01/27 00:48:36;;;;;;;8.43;4.70;;;;;;;-141.97;54.20;46079.78;4996625;28;20425;-89
2024/01/27 00:51:01;;;;;;;9.40;4.80;;;;;;;-141.97;54.24;46025.97;4962225;28;20624;-89
2024/01/27 00:53:27;;;;;;;8.93;5.50;;;;;;;-141.97;54.42;45966.44;4961687;28;20178;-89
2024/01/27 00:55:52;;;;;;;39.53;15.17;;;;;;;-141.97;55.34;46085.53;4982282;28;20163;-90
2024/01/27 00:58:17;;;;;;;22.33;9.37;;;;;;;-141.97;55.89;45945.28;4973084;28;20332;-90
2024/01/27 01:00:43;;;;;;;11.83;6.17;;;;;;;-141.97;57.55;46423.69;4962032;28;20187;-90
2024/01/27 01:03:08;;;;;;;12.30;6.10;;;;;;;-141.97;59.06;45987.56;4993898;28;20690;-90
2024/01/27 01:05:34;;;;;;;13.63;6.33;;;;;;;-141.97;59.31;46375.66;4977501;28;20524;-89
2024/01/27 01:07:59;;;;;;;10.97;6.00;;;;;;;-141.97;59.58;45947.22;4977409;28;20159;-90
2024/01/27 01:10:25;;;;;;;12.57;4.60;;;;;;;-141.97;58.97;46502.47;4961167;28;20602;-90
2024/01/27 01:12:50;;;;;;;8.67;3.87;;;;;;;-141.97;57.27;46089.38;4977144;28;20170;-89
2024/01/27 01:15:16;;;;;;;7.57;3.60;;;;;;;-141.97;56.53;45929.91;4993306;28;20169;-90
2024/01/27 01:17:41;;;;;;;6.03;3.03;;;;;;;-141.97;55.41;46419.84;4977418;28;20183;-90
2024/01/27 01:20:07;;;;;;;6.97;3.53;;;;;;;-141.97;54.97;46072.09;4978860;28;20210;-89
2024/01/27 01:22:33;;;;;;;4.67;3.17;;;;;;;-141.97;54.37;46085.53;4996423;28;20223;-90
2024/01/27 01:24:58;;;;;;;7.93;4.00;;;;;;;-141.97;54.25;46373.72;4997827;28;20437;-91
2024/01/27 01:27:24;;;;;;;5.90;3.43;;;;;;;-141.97;53.58;46450.59;5016367;28;20170;-92
2024/01/27 01:29:49;;;;;;;6.67;3.23;;;;;;;-141.97;54.34;46440.97;4988700;28;20186;-90
2024/01/27 01:32:15;;;;;;;7.00;4.70;;;;;;;-141.97;54.56;46191.22;4973386;28;20306;-89
2024/01/27 01:34:40;;;;;;;6.03;3.37;;;;;;;-141.97;54.76;45916.47;4973518;28;20183;-90
2024/01/27 01:37:06;;;;;;;7.10;3.90;;;;;;;-141.97;55.22;46031.75;4960974;28;20662;-92
2024/01/27 01:39:31;;;;;;;7.07;3.73;;;;;;;-141.97;55.00;46389.09;4973277;28;20182;-90
2024/01/27 01:41:57;;;;;;;6.10;3.53;;;;;;;-141.97;55.84;45931.84;4973334;28;20183;-90
2024/01/27 01:44:23;;;;;;;6.47;3.30;;;;;;;-141.97;56.15;46364.13;4989488;28;20632;-90
2024/01/27 01:46:48;;;;;;;8.97;4.03;;;;;;;-141.97;56.62;46467.88;4976134;28;20194;-90
2024/01/27 01:49:13;;;;;;;6.63;3.53;;;;;;;-141.97;56.71;45964.50;4957281;28;20603;-90
2024/01/27 01:51:39;;;;;;;4.67;3.50;;;;;;;-141.97;56.71;46158.53;4957487;28;20214;-91
2024/01/27 01:54:04;;;;;;;8.47;3.90;;;;;;;-141.97;56.60;46464.03;4957172;28;20179;-90
2024/01/27 01:56:30;;;;;;;7.63;4.07;;;;;;;-141.97;56.68;46058.63;4957121;28;20171;-90
2024/01/27 01:58:55;;;;;;;6.87;3.80;;;;;;;-141.97;56.85;46189.28;4957354;28;20176;-90
2024/01/27 02:01:21;;;;;;;7.13;4.00;;;;;;;-141.97;56.53;46062.47;4957017;28;20270;-90
2024/01/27 02:03:56;;;;;;;6.87;3.50;;;;;;;-141.97;56.39;46050.97;4953855;28;20546;-92
2024/01/27 02:06:21;;;;;;;5.40;3.40;;;;;;;-141.97;56.27;46173.91;4938041;28;20199;-89
2024/01/27 02:08:47;;;;;;;6.43;3.53;;;;;;;-141.97;55.90;46108.59;4938497;28;20426;-91
2024/01/27 02:11:13;;;;;;;7.37;3.73;;;;;;;-141.97;55.99;46427.53;4938788;28;20686;-88
2024/01/27 02:13:38;;;;;;;7.67;4.00;;;;;;;-141.97;56.03;46383.34;4937841;28;20180;-89
2024/01/27 02:16:04;;;;;;;6.03;3.47;;;;;;;-141.97;56.13;45968.34;4953166;28;20683;-89
2024/01/27 02:18:29;;;;;;;8.07;4.00;;;;;;;-141.97;55.57;46454.44;4953299;28;20605;-89
2024/01/27 02:20:55;;;;;;;6.20;3.53;;;;;;;-141.97;55.26;46014.44;4937433;28;20614;-90
2024/01/27 02:23:20;;;;;;;7.07;3.70;;;;;;;-141.97;55.17;45901.09;4953510;28;20465;-92
2024/01/27 02:25:46;;;;;;;7.53;3.90;;;;;;;-141.97;55.31;46319.94;4953513;28;20199;-89
2024/01/27 02:28:13;;;;;;;6.50;3.20;;;;;;;-141.97;56.18;45906.88;4955764;28;20172;-90
2024/01/27 02:30:38;;;;;;;7.47;3.30;;;;;;;-141.97;56.34;46185.44;4953705;28;20323;-90
2024/01/27 02:33:04;;;;;;;12.13;6.23;;;;;;;-141.97;57.17;46285.34;4953579;28;20916;-90
2024/01/27 02:35:30;;;;;;;12.10;6.63;;;;;;;-141.97;60.18;46300.72;4954632;28;20617;-90
2024/01/27 02:37:55;;;;;;;13.53;5.90;;;;;;;-141.97;61.59;46498.63;4953533;28;20652;-90
2024/01/27 02:40:21;;;;;;;12.83;5.73;;;;;;;-141.97;62.13;46385.25;4989398;28;20526;-89
2024/01/27 02:42:46;;;;;;;15.50;6.40;;;;;;;-141.97;62.93;46208.50;4957044;28;20171;-90
2024/01/27 02:45:12;;;;;;;12.77;6.60;;;;;;;-141.97;63.44;46181.59;4972898;28;20164;-89
2024/01/27 02:47:38;;;;;;;11.87;5.77;;;;;;;-141.97;63.13;45981.78;4972790;28;20250;-90
2024/01/27 02:50:03;;;;;;;14.87;6.60;;;;;;;-141.97;62.66;46462.13;4988740;28;20223;-91
2024/01/27 02:52:29;;;;;;;15.00;6.80;;;;;;;-141.97;62.50;46087.47;4988869;28;20195;-89
2024/01/27 02:54:55;;;;;;;15.43;7.53;;;;;;;-141.97;62.76;45856.91;4981928;28;20171;-91
2024/01/27 02:57:21;;;;;;;18.67;8.37;;;;;;;-141.97;62.87;45878.06;4960107;28;20203;-90
2024/01/27 02:59:46;;;;;;;19.87;8.70;;;;;;;-141.97;64.08;46120.13;4959366;28;20425;-91
2024/01/27 03:02:12;;;;;;;14.37;7.40;;;;;;;-141.97;64.52;46465.97;4974114;28;20262;-90
2024/01/27 03:04:37;;;;;;;13.87;7.53;;;;;;;-141.97;65.67;46423.69;4972532;28;20167;-90
2024/01/27 03:07:03;;;;;;;24.67;11.37;;;;;;;-141.97;65.90;46319.94;4972665;28;20164;-90
2024/01/27 03:09:28;;;;;;;18.63;7.70;;;;;;;-141.97;66.34;46333.38;4988719;28;20191;-90
2024/01/27 03:11:54;;;;;;;11.87;5.43;;;;;;;-141.97;68.65;46152.78;4958240;28;20211;-89
2024/01/27 03:14:19;;;;;;;10.13;5.37;;;;;;;-141.97;70.72;46440.97;4958714;28;20175;-90
2024/01/27 03:16:45;;;;;;;16.07;8.00;;;;;;;-141.97;71.80;46064.41;4972517;28;20186;-91
2024/01/27 03:19:10;;;;;;;14.63;6.57;;;;;;;-141.97;72.45;46452.50;4972644;28;20194;-90
2024/01/27 03:21:36;;;;;;;8.10;4.77;;;;;;;-141.97;72.83;46095.16;4992811;28;20160;-89
2024/01/27 03:24:01;;;;;;;10.37;5.10;;;;;;;-141.97;72.57;46039.44;4960502;28;20171;-91
2024/01/27 03:26:27;;;;;;;13.60;6.90;;;;;;;-141.97;72.51;46500.56;4960619;28;20748;-88
2024/01/27 03:28:52;;;;;;;11.03;5.40;;;;;;;-141.97;73.17;46527.44;4976739;28;20654;-90
2024/01/27 03:31:18;;;;;;;8.30;4.03;;;;;;;-141.97;72.65;46492.88;4975932;28;20210;-90
2024/01/27 03:33:43;;;;;;;9.33;5.13;;;;;;;-141.97;72.73;45912.63;4976739;28;20631;-90
2024/01/27 03:36:12;;;;;;;13.43;6.40;;;;;;;-141.97;71.92;46022.13;4997545;28;20605;-90
2024/01/27 03:38:40;;;;;;;12.13;5.20;;;;;;;-141.97;71.29;46024.06;4961547;28;20816;-90
2024/01/27 03:41:06;;;;;;;11.73;6.10;;;;;;;-141.97;70.28;46519.75;4960865;28;20445;-91
2024/01/27 03:43:31;;;;;;;13.73;7.40;;;;;;;-141.97;69.03;46567.81;4986675;28;20411;-92
2024/01/27 03:45:57;;;;;;;10.27;5.00;;;;;;;-141.97;67.98;46054.81;4981141;28;20639;-91
2024/01/27 03:48:23;;;;;;;10.20;6.30;;;;;;;-141.97;66.83;46439.06;4976800;28;20237;-90
2024/01/27 03:50:48;;;;;;;16.90;8.60;;;;;;;-141.97;67.44;46465.97;4961073;28;20246;-91
2024/01/27 03:53:14;;;;;;;16.83;9.13;;;;;;;-141.97;69.17;46385.25;4960073;28;20171;-91
2024/01/27 03:55:39;;;;;;;19.47;9.80;;;;;;;-141.97;69.27;46450.59;4975962;28;20174;-91
2024/01/27 03:58:04;;;;;;;10.27;4.40;;;;;;;-141.97;67.84;46198.91;4976018;28;20171;-90
2024/01/27 04:00:33;;;;;;;9.63;4.60;;;;;;;-141.97;65.07;46431.38;4975647;28;20182;-89
2024/01/27 04:03:01;;;;;;;10.20;4.80;;;;;;;-141.97;64.43;46431.38;4960057;28;20176;-90
2024/01/27 04:05:28;;;;;;;9.87;5.00;;;;;;;-141.97;64.86;46404.47;4959653;28;20460;-90
2024/01/27 04:07:54;;;;;;;14.07;7.30;;;;;;;-141.97;64.17;45949.13;4975718;28;20423;-89
2024/01/27 04:10:20;;;;;;;16.50;9.00;;;;;;;-141.97;63.82;46348.75;4975577;28;20411;-90
2024/01/27 04:12:45;;;;;;;20.27;10.70;;;;;;;-141.97;63.64;45977.94;4976484;28;20235;-90
2024/01/27 04:15:11;;;;;;;20.33;9.93;;;;;;;-141.97;64.72;46481.34;4992528;28;20497;-91
2024/01/27 04:17:40;;;;;;;23.80;10.60;;;;;;;-141.97;65.64;46181.59;4976250;28;20592;-91
2024/01/27 04:20:09;;;;;;;24.13;12.37;;;;;;;-141.97;66.41;46131.66;4964742;28;20175;-90
2024/01/27 04:22:34;;;;;;;21.40;9.73;;;;;;;-141.97;66.21;45947.22;4999977;28;20430;-91
2024/01/27 04:25:00;;;;;;;21.03;11.33;;;;;;;-141.97;66.36;45943.38;4982141;28;20439;-90
2024/01/27 04:27:29;;;;;;;20.20;9.47;;;;;;;-141.97;67.04;46433.28;4980507;28;20171;-89
2024/01/27 04:29:54;;;;;;;29.53;14.60;;;;;;;-141.97;66.80;46183.53;4979593;28;20262;-90
2024/01/27 04:32:21;;;;;;;19.47;10.17;;;;;;;-141.97;66.57;46277.66;4979649;28;20488;-91
2024/01/27 04:34:47;;;;;;;19.57;9.90;;;;;;;-141.97;66.88;46173.91;4967393;28;20632;-90
2024/01/27 04:37:12;;;;;;;17.63;7.70;;;;;;;-141.97;66.49;46412.16;4961133;28;20429;-91
2024/01/27 04:39:38;;;;;;;13.53;6.70;;;;;;;-141.97;66.28;45903.03;4977054;28;20850;-91
2024/01/27 04:42:06;;;;;;;21.20;11.30;;;;;;;-141.97;65.04;46454.44;4960918;28;20622;-91
2024/01/27 04:44:31;;;;;;;17.67;8.40;;;;;;;-141.97;64.62;46412.16;4975587;28;20275;-91
2024/01/27 04:46:57;;;;;;;13.93;6.57;;;;;;;-141.97;63.47;46104.75;4975161;28;20853;-89
2024/01/27 04:49:22;;;;;;;21.90;8.10;;;;;;;-141.97;62.69;46077.84;4958679;28;20242;-89
2024/01/27 04:51:48;;;;;;;19.07;9.97;;;;;;;-141.97;61.68;46020.22;4958886;28;20245;-88
2024/01/27 04:54:13;;;;;;;16.27;8.87;;;;;;;-141.97;61.13;45862.69;4959009;28;20269;-91
2024/01/27 04:56:39;;;;;;;21.40;9.07;;;;;;;-141.97;60.52;46469.81;4975293;28;20563;-91
2024/01/27 04:59:04;;;;;;;23.20;10.27;;;;;;;-141.97;60.70;46137.41;4966657;28;20179;-90
2024/01/27 05:01:31;;;;;;;18.13;9.07;;;;;;;-141.97;62.04;46148.94;4980088;28;20227;-90
2024/01/27 05:03:57;;;;;;;11.23;5.27;;;;;;;-141.97;59.91;45935.69;4982310;28;20262;-91
2024/01/27 05:06:22;;;;;;;9.03;4.67;;;;;;;-141.97;58.85;45922.25;4975174;28;20421;-92
2024/01/27 05:08:48;;;;;;;11.53;6.57;;;;;;;-141.97;58.53;46341.06;4974577;28;20163;-91
2024/01/27 05:11:37;;;;;;;13.10;6.67;;;;;;;-141.97;57.81;45866.53;4972158;28;20187;-91
2024/01/27 05:14:03;;;;;;;10.77;5.13;;;;;;;-141.97;56.91;46093.22;4937806;28;20203;-92
2024/01/27 05:16:28;;;;;;;6.80;3.67;;;;;;;-141.97;54.38;45893.41;4938422;28;20439;-92
2024/01/27 05:18:53;;;;;;;5.73;3.50;;;;;;;-141.97;54.59;45901.09;4938347;28;20207;-91
2024/01/27 05:21:19;;;;;;;8.67;5.10;;;;;;;-141.97;55.08;46087.47;4938334;28;20651;-92
2024/01/27 05:23:44;;;;;;;12.77;5.53;;;;;;;-141.97;54.05;45901.09;4938463;28;20192;-91
2024/01/27 05:26:13;;;;;;;7.30;4.03;;;;;;;-141.97;51.68;46354.53;4938091;28;20215;-91
2024/01/27 05:28:39;;;;;;;8.73;4.23;;;;;;;-141.97;51.71;46377.56;4938807;28;20680;-91
2024/01/27 05:31:08;;;;;;;8.30;3.97;;;;;;;-141.97;50.92;46143.19;4938045;28;20542;-91
2024/01/27 05:33:33;;;;;;;13.30;6.83;;;;;;;-141.97;51.91;46473.66;4939160;28;20423;-93
2024/01/27 05:35:59;;;;;;;16.33;6.50;;;;;;;-141.97;51.74;46521.69;4954641;28;20435;-91
2024/01/27 05:38:25;;;;;;;10.67;5.13;;;;;;;-141.97;50.97;46074.00;4942338;28;20203;-90
2024/01/27 05:40:51;;;;;;;14.77;6.80;;;;;;;-141.97;51.50;46369.88;4942990;28;20172;-91
2024/01/27 05:43:16;;;;;;;13.63;8.47;;;;;;;-141.97;51.56;46129.72;4936953;28;20574;-89
2024/01/27 05:45:42;;;;;;;13.40;7.47;;;;;;;-141.97;51.51;46141.25;4936993;28;20206;-89
2024/01/27 05:48:08;;;;;;;21.07;10.10;;;;;;;-141.97;51.58;46416.00;4937308;28;20175;-89
2024/01/27 05:50:34;;;;;;;30.20;12.80;;;;;;;-141.97;51.54;46024.06;4946781;28;20223;-92
2024/01/27 05:52:59;;;;;;;27.27;13.87;;;;;;;-141.97;51.15;46129.72;4973789;28;20596;-90
2024/01/27 05:55:25;;;;;;;19.60;9.93;;;;;;;-141.97;51.37;46392.94;4973625;28;20425;-92
2024/01/27 05:57:50;;;;;;;20.87;10.03;;;;;;;-141.97;51.74;46148.94;4957587;28;20179;-91
2024/01/27 06:00:16;;;;;;;11.97;6.53;;;;;;;-141.97;52.58;46456.34;4957859;28;20655;-91
2024/01/27 06:02:41;;;;;;;27.20;15.70;;;;;;;-141.97;53.07;46173.91;4954224;28;20983;-92
2024/01/27 06:05:08;;;;;;;18.03;10.63;;;;;;;-141.97;54.80;46289.19;4954225;28;20167;-92
2024/01/27 06:07:34;;;;;;;10.60;5.60;;;;;;;-141.97;54.13;46331.47;4955051;28;20562;-91
2024/01/27 06:09:59;;;;;;;15.20;8.87;;;;;;;-141.97;54.16;45885.72;4954335;28;20526;-91
2024/01/27 06:12:25;;;;;;;18.70;9.23;;;;;;;-141.97;54.18;45958.75;4938365;28;20196;-91
2024/01/27 06:14:50;;;;;;;21.53;8.73;;;;;;;-141.97;53.85;46446.75;4955568;28;20164;-90
2024/01/27 06:17:16;;;;;;;25.13;12.60;;;;;;;-141.97;54.63;46531.28;4943834;28;20251;-90
2024/01/27 06:19:41;;;;;;;27.17;13.23;;;;;;;-141.97;55.84;46047.13;4945899;28;20172;-91
2024/01/27 06:22:07;;;;;;;45.33;23.37;;;;;;;-141.97;56.36;46343.00;4948598;28;20167;-90
2024/01/27 06:24:32;;;;;;;39.07;16.13;;;;;;;-141.97;56.07;45889.56;4967577;28;20198;-92
2024/01/27 06:26:58;;;;;;;55.20;27.07;;;;;;;-141.97;56.14;46389.09;4945582;28;20330;-92
2024/01/27 06:29:25;;;;;;;47.50;23.30;;;;;;;-141.97;55.84;46031.75;4950203;28;20251;-92
2024/01/27 06:31:50;;;;;;;31.20;15.97;;;;;;;-141.97;54.48;46097.06;5199764;23;20265;-91
2024/01/27 06:34:16;;;;;;;47.10;25.30;;;;;;;-141.97;54.92;46204.66;4999927;28;20445;-92
2024/01/27 06:36:41;;;;;;;75.70;36.53;;;;;;;-141.97;56.00;45881.91;5011876;28;20682;-92
2024/01/27 06:39:07;;;;;;;138.10;58.20;;;;;;;-141.97;59.30;46400.63;5009151;28;20182;-92
2024/01/27 06:41:33;;;;;;;45.57;22.70;;;;;;;-141.97;61.59;45887.66;4976088;28;20189;-91
2024/01/27 06:43:58;;;;;;;45.90;19.77;;;;;;;-141.97;67.25;46112.44;4976692;28;20437;-90
2024/01/27 06:46:24;;;;;;;21.03;9.73;;;;;;;-141.97;71.57;45964.50;4994540;28;20237;-92
2024/01/27 06:48:50;;;;;;;36.90;13.17;;;;;;;-141.97;73.17;45903.03;5008231;28;20167;-91
2024/01/27 06:51:15;;;;;;;30.07;12.13;;;;;;;-141.97;73.16;45987.56;4975938;28;20472;-90
2024/01/27 06:53:41;;;;;;;24.67;10.50;;;;;;;-141.97;73.13;45906.88;4992486;28;20631;-89
2024/01/27 06:56:07;;;;;;;36.37;12.37;;;;;;;-141.97;72.87;46423.69;4979914;28;20221;-91
2024/01/27 06:58:33;;;;;;;25.67;11.20;;;;;;;-141.97;72.78;46446.75;4995751;28;20217;-90
2024/01/27 07:00:58;;;;;;;20.40;11.10;;;;;;;-141.97;72.92;45974.09;4996635;28;20414;-90
2024/01/27 07:03:23;;;;;;;26.83;12.27;;;;;;;-141.97;72.23;46025.97;5014878;28;20628;-90
2024/01/27 07:05:49;;;;;;;42.03;18.13;;;;;;;-141.97;71.77;46050.97;4998905;28;20168;-89
2024/01/27 07:08:15;;;;;;;45.40;18.87;;;;;;;-141.97;71.53;46029.81;5005620;28;20580;-90
2024/01/27 07:10:40;;;;;;;48.13;22.93;;;;;;;-141.97;70.61;46047.13;4993106;28;20179;-90
2024/01/27 07:13:06;;;;;;;42.93;23.80;;;;;;;-141.97;69.82;46525.53;4984491;28;20673;-89
2024/01/27 07:15:31;;;;;;;74.10;28.03;;;;;;;-141.97;69.36;45983.72;4983346;28;20541;-89
2024/01/27 07:17:57;;;;;;;61.73;23.03;;;;;;;-141.97;68.12;45943.38;4980826;28;20174;-91
2024/01/27 07:20:24;;;;;;;41.30;17.63;;;;;;;-141.97;66.58;46462.13;4980286;28;20178;-90
2024/01/27 07:22:49;;;;;;;43.90;19.40;;;;;;;-141.97;64.78;46327.63;4980800;28;20631;-90
2024/01/27 07:25:15;;;;;;;25.37;12.57;;;;;;;-141.97;62.70;46066.31;4980737;28;20426;-90
2024/01/27 07:27:41;;;;;;;24.43;10.60;;;;;;;-141.97;60.73;46437.13;5014602;28;20175;-89
2024/01/27 07:30:09;;;;;;;46.67;19.37;;;;;;;-141.97;60.42;46496.72;4994768;28;20417;-89
2024/01/27 07:32:34;;;;;;;34.57;16.70;;;;;;;-141.97;59.84;46366.06;5012426;28;20594;-90
2024/01/27 07:35:00;;;;;;;27.93;12.50;;;;;;;-141.97;58.89;46135.50;4980121;28;20900;-87
2024/01/27 07:37:25;;;;;;;35.80;15.10;;;;;;;-141.97;58.46;46123.97;4996057;28;20253;-89
2024/01/27 07:39:51;;;;;;;96.93;27.43;;;;;;;-141.97;58.27;45920.31;4984709;28;20175;-89
2024/01/27 07:42:16;;;;;;;26.07;14.80;;;;;;;-141.97;57.85;46356.44;5011737;28;20170;-91
2024/01/27 07:44:42;;;;;;;11.80;6.37;;;;;;;-141.97;57.40;46354.53;5012946;28;20615;-90
2024/01/27 07:47:08;;;;;;;7.77;4.40;;;;;;;-141.97;57.05;46125.88;4981077;28;20729;-89
2024/01/27 07:49:34;;;;;;;11.10;5.20;;;;;;;-141.97;56.63;45924.16;4981086;28;20624;-90
2024/01/27 07:51:59;;;;;;;8.53;4.43;;;;;;;-141.97;56.41;45920.31;4992742;28;20456;-90
2024/01/27 07:54:25;;;;;;;9.10;4.07;;;;;;;-141.97;56.34;46062.47;4993013;28;20522;-89
2024/01/27 07:56:50;;;;;;;9.83;4.90;;;;;;;-141.97;56.76;45870.38;4993894;28;20168;-90
2024/01/27 07:59:16;;;;;;;8.53;3.33;;;;;;;-141.97;57.17;45931.84;4991978;28;20186;-91
2024/01/27 08:01:41;;;;;;;9.43;5.03;;;;;;;-141.97;57.72;46112.44;4992222;28;20186;-90
2024/01/27 08:04:07;;;;;;;12.23;5.03;;;;;;;-141.97;58.36;46043.28;4993892;28;20171;-89
2024/01/27 08:06:32;;;;;;;12.47;5.40;;;;;;;-141.97;59.51;46318.00;4979901;28;20258;-88
2024/01/27 08:08:58;;;;;;;15.13;6.80;;;;;;;-141.97;60.06;45879.97;5008118;28;20163;-89
2024/01/27 08:11:24;;;;;;;11.77;5.47;;;;;;;-141.97;60.96;46114.34;5008307;28;20434;-88
2024/01/27 08:13:50;;;;;;;8.87;3.90;;;;;;;-141.97;60.08;46323.78;4992757;28;20245;-88
2024/01/27 08:16:15;;;;;;;16.27;7.13;;;;;;;-141.97;59.22;46327.63;5010129;28;20407;-88
2024/01/27 08:18:43;;;;;;;12.60;6.23;;;;;;;-141.97;58.21;46291.13;4981019;28;20171;-89
2024/01/27 08:21:09;;;;;;;17.00;8.87;;;;;;;-141.97;56.87;46081.69;4997655;28;20163;-89
2024/01/27 08:23:34;;;;;;;16.53;7.73;;;;;;;-141.97;56.21;46273.81;5009865;28;20786;-90
2024/01/27 08:26:00;;;;;;;9.97;5.50;;;;;;;-141.97;53.88;46352.59;4991716;28;20163;-90
2024/01/27 08:28:25;;;;;;;7.37;4.63;;;;;;;-141.97;53.17;45926.06;5007983;28;20167;-88
2024/01/27 08:30:51;;;;;;;7.67;4.00;;;;;;;-141.97;52.85;46012.53;4991491;28;20192;-89
2024/01/27 08:33:16;;;;;;;10.60;4.80;;;;;;;-141.97;52.60;46391.03;4991353;28;20223;-89
2024/01/27 08:35:41;;;;;;;6.67;4.30;;;;;;;-141.97;52.32;46517.84;4974945;28;20674;-89
2024/01/27 08:38:09;;;;;;;13.20;5.23;;;;;;;-141.97;52.79;45897.25;4975003;28;20642;-90
2024/01/27 08:40:34;;;;;;;16.57;6.50;;;;;;;-141.97;52.03;46127.81;4976040;28;20190;-89
2024/01/27 08:43:01;;;;;;;23.63;8.43;;;;;;;-141.97;51.47;45970.25;4991758;28;20891;-88
2024/01/27 08:45:26;;;;;;;16.77;7.70;;;;;;;-141.97;52.49;46001.00;4975298;28;20415;-88
2024/01/27 08:47:51;;;;;;;26.47;10.60;;;;;;;-141.97;52.70;45997.16;4975265;28;20183;-88
2024/01/27 08:50:17;;;;;;;22.87;9.13;;;;;;;-141.97;51.76;46366.06;4959776;28;20593;-89
2024/01/27 08:52:42;;;;;;;13.80;6.60;;;;;;;-141.97;53.91;45908.78;4975292;28;20694;-86
2024/01/27 08:55:08;;;;;;;8.30;4.53;;;;;;;-141.97;54.73;45933.75;4982533;28;20257;-88
2024/01/27 08:57:33;;;;;;;8.60;4.40;;;;;;;-141.97;54.95;45887.66;5029348;28;20491;-89
2024/01/27 08:59:59;;;;;;;8.00;4.37;;;;;;;-141.97;55.83;45939.53;5018734;28;20183;-88
2024/01/27 09:02:24;;;;;;;4.63;3.00;;;;;;;-141.97;56.83;45839.63;5033883;28;20162;-86
2024/01/27 09:04:50;;;;;;;11.27;5.03;;;;;;;-141.97;58.06;45878.06;5024657;28;20171;-87
2024/01/27 09:07:16;;;;;;;5.73;3.80;;;;;;;-141.97;58.36;46485.19;5005913;28;20572;-88
2024/01/27 09:09:41;;;;;;;7.03;4.17;;;;;;;-141.97;57.13;46331.47;5019223;28;20677;-87
2024/01/27 09:12:07;;;;;;;18.50;7.23;;;;;;;-141.97;57.72;46350.69;5017306;28;20190;-86
2024/01/27 09:14:33;;;;;;;4.40;2.77;;;;;;;-141.97;57.75;46354.53;5012819;28;20715;-88
2024/01/27 09:17:00;;;;;;;4.87;2.83;;;;;;;-141.97;56.80;46058.63;5013282;28;20170;-87
2024/01/27 09:19:25;;;;;;;4.57;2.93;;;;;;;-141.97;56.73;45843.47;5008907;28;20547;-87
2024/01/27 09:21:51;;;;;;;7.50;3.70;;;;;;;-141.97;55.76;46266.13;5032252;28;20159;-87
2024/01/27 09:24:16;;;;;;;6.87;3.20;;;;;;;-141.97;54.55;46354.53;5012327;28;20163;-86
2024/01/27 09:26:43;;;;;;;5.50;3.67;;;;;;;-141.97;53.67;46047.13;4995080;28;20198;-86
2024/01/27 09:29:09;;;;;;;7.40;3.53;;;;;;;-141.97;52.10;45780.06;5011398;28;20175;-87
2024/01/27 09:31:34;;;;;;;7.13;4.10;;;;;;;-141.97;50.06;46004.84;5026676;28;20232;-87
2024/01/27 09:34:00;;;;;;;7.47;4.47;;;;;;;-141.97;48.80;45997.16;5012282;28;20677;-87
2024/01/27 09:36:26;;;;;;;7.73;4.57;;;;;;;-141.97;47.66;46381.41;4993773;28;20171;-87
2024/01/27 09:38:52;;;;;;;8.07;4.93;;;;;;;-141.97;47.07;46002.94;5026764;28;20607;-86
2024/01/27 09:41:18;;;;;;;10.70;5.63;;;;;;;-141.97;46.83;45977.94;5011248;28;20154;-87
2024/01/27 09:43:44;;;;;;;13.77;6.50;;;;;;;-141.97;46.65;45828.09;5011664;28;20290;-86
2024/01/27 09:46:14;;;;;;;11.90;5.20;;;;;;;-141.97;46.17;46223.88;5027171;28;20162;-87
2024/01/27 09:48:39;;;;;;;6.83;3.83;;;;;;;-141.97;45.95;45797.38;5009903;28;20193;-86
2024/01/27 09:51:06;;;;;;;11.60;6.83;;;;;;;-141.97;45.81;46319.94;5013246;28;20670;-86
2024/01/27 09:53:32;;;;;;;16.73;8.13;;;;;;;-141.97;45.32;45831.94;5026579;28;20163;-87
2024/01/27 09:56:01;;;;;;;10.33;6.57;;;;;;;-141.97;45.07;45943.38;5011474;28;20169;-87
2024/01/27 09:58:28;;;;;;;5.47;4.20;;;;;;;-141.97;44.80;45966.44;4993428;28;20678;-86
2024/01/27 10:00:55;;;;;;;5.87;3.33;;;;;;;-141.97;45.73;46016.38;5021995;28;20206;-86
2024/01/27 10:03:20;;;;;;;5.60;3.90;;;;;;;-141.97;46.27;46010.63;4978196;28;20317;-86
2024/01/27 10:05:46;;;;;;;9.10;4.53;;;;;;;-141.97;46.96;45812.72;4958379;28;20175;-87
2024/01/27 10:08:11;;;;;;;12.17;4.67;;;;;;;-141.97;48.04;45943.38;4974733;28;20471;-86
2024/01/27 10:10:38;;;;;;;6.87;4.43;;;;;;;-141.97;46.91;45910.72;4973722;28;20171;-86
2024/01/27 10:13:04;;;;;;;19.43;10.13;;;;;;;-141.97;46.23;45964.50;4974814;28;20647;-86
2024/01/27 10:15:29;;;;;;;17.23;9.67;;;;;;;-141.97;45.87;46366.06;4957809;28;20182;-86
2024/01/27 10:18:06;;;;;;;9.27;5.87;;;;;;;-141.97;44.51;45951.06;4981197;28;20167;-86
2024/01/27 10:20:31;;;;;;;21.77;10.53;;;;;;;-141.97;44.60;45885.72;4975306;28;20174;-86
2024/01/27 10:22:57;;;;;;;11.53;7.03;;;;;;;-141.97;45.31;45974.09;4977015;28;20229;-86
2024/01/27 10:25:22;;;;;;;9.93;5.73;;;;;;;-141.97;44.50;46235.41;4994577;28;20206;-86
2024/01/27 10:27:48;;;;;;;11.83;5.20;;;;;;;-141.97;43.98;45976.03;4974055;28;20258;-88
2024/01/27 10:30:18;;;;;;;9.97;6.60;;;;;;;-141.97;44.86;45864.59;4974695;28;20179;-86
2024/01/27 10:32:43;;;;;;;5.50;4.30;;;;;;;-141.97;45.45;46283.44;4955458;28;20278;-86
2024/01/27 10:35:09;;;;;;;9.43;5.03;;;;;;;-141.97;45.78;46054.81;4986336;28;20172;-85
2024/01/27 10:37:35;;;;;;;8.33;4.37;;;;;;;-141.97;45.86;46127.81;4970115;28;20625;-87
2024/01/27 10:40:04;;;;;;;8.37;5.03;;;;;;;-141.97;45.46;46414.09;4970495;28;20510;-85
2024/01/27 10:42:37;;;;;;;7.97;4.90;;;;;;;-141.97;45.63;45983.72;4970752;28;20659;-86
2024/01/27 10:45:03;;;;;;;11.23;6.30;;;;;;;-141.97;44.83;45983.72;4956926;28;20192;-86
2024/01/27 10:47:30;;;;;;;12.93;7.73;;;;;;;-141.97;45.52;45977.94;4954009;28;20607;-86
2024/01/27 10:49:57;;;;;;;14.00;6.13;;;;;;;-141.97;44.82;45977.94;4972934;28;20644;-85
2024/01/27 10:52:23;;;;;;;9.40;5.57;;;;;;;-141.97;44.54;46346.84;4977328;28;20227;-86
2024/01/27 10:54:49;;;;;;;9.57;6.20;;;;;;;-141.97;44.59;45831.94;4955025;28;20664;-86
2024/01/27 10:57:14;;;;;;;6.50;4.77;;;;;;;-141.97;44.25;45820.41;4972441;28;20164;-87
2024/01/27 10:59:40;;;;;;;7.97;4.93;;;;;;;-141.97;44.22;45891.50;4972384;28;20628;-85
2024/01/27 11:02:05;;;;;;;14.63;6.67;;;;;;;-141.97;44.89;45872.28;4971423;28;20580;-88
2024/01/27 11:04:35;;;;;;;17.60;8.50;;;;;;;-141.97;45.66;45945.28;4970031;28;20589;-86